sensor_id;sensor_type;location;lat;lon;timestamp;P1;durP1;ratioP1;P2;durP2;ratioP2
6185;SDS011;3126;52.738;8.316;2022-07-23T00:02:24;5.20;;;4.70;;
6185;SDS011;3126;52.738;8.316;2022-07-23T00:07:25;5.32;;;4.78;;
6185;SDS011;3126;52.738;8.316;2022-07-23T00:12:26;6.35;;;4.68;;
6185;SDS011;3126;52.738;8.316;2022-07-23T00:17:26;6.75;;;5.35;;
6185;SDS011;3126;52.738;8.316;2022-07-23T00:22:27;5.80;;;5.20;;
6185;SDS011;3126;52.738;8.316;2022-07-23T00:27:29;5.75;;;5.13;;
6185;SDS011;3126;52.738;8.316;2022-07-23T00:32:29;8.57;;;5.85;;
6185;SDS011;3126;52.738;8.316;2022-07-23T00:37:30;9.65;;;6.35;;
6185;SDS011;3126;52.738;8.316;2022-07-23T00:42:31;7.57;;;6.78;;
6185;SDS011;3126;52.738;8.316;2022-07-23T00:47:32;6.90;;;5.95;;
6185;SDS011;3126;52.738;8.316;2022-07-23T00:52:33;8.98;;;5.97;;
6185;SDS011;3126;52.738;8.316;2022-07-23T00:57:36;7.15;;;6.03;;
6185;SDS011;3126;52.738;8.316;2022-07-23T01:02:37;8.48;;;6.47;;
6185;SDS011;3126;52.738;8.316;2022-07-23T01:07:39;8.32;;;6.70;;
6185;SDS011;3126;52.738;8.316;2022-07-23T01:12:40;9.50;;;6.32;;
6185;SDS011;3126;52.738;8.316;2022-07-23T01:17:40;11.85;;;6.20;;
6185;SDS011;3126;52.738;8.316;2022-07-23T01:22:41;9.90;;;6.72;;
6185;SDS011;3126;52.738;8.316;2022-07-23T01:27:42;9.23;;;7.35;;
6185;SDS011;3126;52.738;8.316;2022-07-23T01:32:42;10.73;;;6.93;;
6185;SDS011;3126;52.738;8.316;2022-07-23T01:37:43;13.60;;;6.43;;
6185;SDS011;3126;52.738;8.316;2022-07-23T01:42:44;9.90;;;6.68;;
6185;SDS011;3126;52.738;8.316;2022-07-23T01:47:44;9.70;;;6.88;;
6185;SDS011;3126;52.738;8.316;2022-07-23T01:52:46;9.80;;;7.05;;
6185;SDS011;3126;52.738;8.316;2022-07-23T01:57:46;10.77;;;6.85;;
6185;SDS011;3126;52.738;8.316;2022-07-23T02:02:47;8.25;;;6.90;;
6185;SDS011;3126;52.738;8.316;2022-07-23T02:07:47;12.18;;;7.55;;
6185;SDS011;3126;52.738;8.316;2022-07-23T02:12:48;7.75;;;6.50;;
6185;SDS011;3126;52.738;8.316;2022-07-23T02:17:48;8.98;;;6.60;;
6185;SDS011;3126;52.738;8.316;2022-07-23T02:22:49;8.20;;;5.72;;
6185;SDS011;3126;52.738;8.316;2022-07-23T02:27:50;9.80;;;7.30;;
6185;SDS011;3126;52.738;8.316;2022-07-23T02:32:50;10.38;;;7.40;;
6185;SDS011;3126;52.738;8.316;2022-07-23T02:37:51;8.02;;;6.85;;
6185;SDS011;3126;52.738;8.316;2022-07-23T02:42:51;11.13;;;6.82;;
6185;SDS011;3126;52.738;8.316;2022-07-23T02:47:52;10.70;;;7.25;;
6185;SDS011;3126;52.738;8.316;2022-07-23T02:52:52;11.95;;;7.15;;
6185;SDS011;3126;52.738;8.316;2022-07-23T02:57:53;9.70;;;7.07;;
6185;SDS011;3126;52.738;8.316;2022-07-23T03:02:53;10.93;;;7.55;;
6185;SDS011;3126;52.738;8.316;2022-07-23T03:07:54;9.20;;;7.18;;
6185;SDS011;3126;52.738;8.316;2022-07-23T03:12:55;8.50;;;6.43;;
6185;SDS011;3126;52.738;8.316;2022-07-23T03:17:55;11.18;;;7.07;;
6185;SDS011;3126;52.738;8.316;2022-07-23T03:22:56;7.53;;;6.50;;
6185;SDS011;3126;52.738;8.316;2022-07-23T03:27:57;10.13;;;6.40;;
6185;SDS011;3126;52.738;8.316;2022-07-23T03:32:58;9.63;;;6.53;;
6185;SDS011;3126;52.738;8.316;2022-07-23T03:37:59;9.75;;;6.85;;
6185;SDS011;3126;52.738;8.316;2022-07-23T03:42:59;9.50;;;7.28;;
6185;SDS011;3126;52.738;8.316;2022-07-23T03:48:00;9.80;;;6.60;;
6185;SDS011;3126;52.738;8.316;2022-07-23T03:53:01;8.52;;;6.32;;
6185;SDS011;3126;52.738;8.316;2022-07-23T03:58:02;9.05;;;7.00;;
6185;SDS011;3126;52.738;8.316;2022-07-23T04:03:03;8.20;;;7.03;;
6185;SDS011;3126;52.738;8.316;2022-07-23T04:08:03;8.82;;;7.38;;
6185;SDS011;3126;52.738;8.316;2022-07-23T04:13:04;8.88;;;7.22;;
6185;SDS011;3126;52.738;8.316;2022-07-23T04:18:05;9.50;;;6.75;;
6185;SDS011;3126;52.738;8.316;2022-07-23T04:23:05;10.05;;;7.00;;
6185;SDS011;3126;52.738;8.316;2022-07-23T04:28:06;11.30;;;7.35;;
6185;SDS011;3126;52.738;8.316;2022-07-23T04:33:06;8.90;;;7.60;;
6185;SDS011;3126;52.738;8.316;2022-07-23T04:38:07;9.88;;;8.32;;
6185;SDS011;3126;52.738;8.316;2022-07-23T04:43:07;12.70;;;8.45;;
6185;SDS011;3126;52.738;8.316;2022-07-23T04:48:08;13.98;;;8.38;;
6185;SDS011;3126;52.738;8.316;2022-07-23T04:53:08;12.45;;;8.57;;
6185;SDS011;3126;52.738;8.316;2022-07-23T04:58:09;12.35;;;8.40;;
6185;SDS011;3126;52.738;8.316;2022-07-23T05:03:10;9.63;;;6.75;;
6185;SDS011;3126;52.738;8.316;2022-07-23T05:08:12;11.98;;;7.85;;
6185;SDS011;3126;52.738;8.316;2022-07-23T05:13:16;10.07;;;7.28;;
6185;SDS011;3126;52.738;8.316;2022-07-23T05:18:17;8.70;;;7.18;;
6185;SDS011;3126;52.738;8.316;2022-07-23T05:23:18;11.32;;;6.40;;
6185;SDS011;3126;52.738;8.316;2022-07-23T05:28:19;8.73;;;6.15;;
6185;SDS011;3126;52.738;8.316;2022-07-23T05:33:20;7.53;;;6.57;;
6185;SDS011;3126;52.738;8.316;2022-07-23T05:38:20;7.72;;;6.10;;
6185;SDS011;3126;52.738;8.316;2022-07-23T05:43:21;7.13;;;6.00;;
6185;SDS011;3126;52.738;8.316;2022-07-23T05:48:22;6.70;;;4.90;;
6185;SDS011;3126;52.738;8.316;2022-07-23T05:53:24;7.47;;;5.15;;
6185;SDS011;3126;52.738;8.316;2022-07-23T05:58:25;6.97;;;4.50;;
6185;SDS011;3126;52.738;8.316;2022-07-23T06:03:25;8.60;;;4.78;;
6185;SDS011;3126;52.738;8.316;2022-07-23T06:08:26;4.43;;;4.03;;
6185;SDS011;3126;52.738;8.316;2022-07-23T06:13:26;6.20;;;4.30;;
6185;SDS011;3126;52.738;8.316;2022-07-23T06:18:27;5.35;;;4.00;;
6185;SDS011;3126;52.738;8.316;2022-07-23T06:23:28;7.50;;;4.10;;
6185;SDS011;3126;52.738;8.316;2022-07-23T06:28:28;4.68;;;3.45;;
6185;SDS011;3126;52.738;8.316;2022-07-23T06:33:29;4.30;;;3.42;;
6185;SDS011;3126;52.738;8.316;2022-07-23T06:38:30;6.10;;;3.83;;
6185;SDS011;3126;52.738;8.316;2022-07-23T06:43:30;5.15;;;3.53;;
6185;SDS011;3126;52.738;8.316;2022-07-23T06:48:31;5.00;;;3.33;;
6185;SDS011;3126;52.738;8.316;2022-07-23T06:53:35;4.82;;;3.67;;
6185;SDS011;3126;52.738;8.316;2022-07-23T06:58:35;4.55;;;3.95;;
6185;SDS011;3126;52.738;8.316;2022-07-23T07:03:36;5.15;;;3.30;;
6185;SDS011;3126;52.738;8.316;2022-07-23T07:08:37;5.53;;;3.30;;
6185;SDS011;3126;52.738;8.316;2022-07-23T07:13:38;6.40;;;2.47;;
6185;SDS011;3126;52.738;8.316;2022-07-23T07:18:38;3.70;;;2.70;;
6185;SDS011;3126;52.738;8.316;2022-07-23T07:23:39;4.93;;;2.63;;
6185;SDS011;3126;52.738;8.316;2022-07-23T07:28:40;2.28;;;1.60;;
6185;SDS011;3126;52.738;8.316;2022-07-23T07:33:40;5.10;;;1.77;;
6185;SDS011;3126;52.738;8.316;2022-07-23T07:38:41;1.98;;;1.80;;
6185;SDS011;3126;52.738;8.316;2022-07-23T07:43:42;2.17;;;1.70;;
6185;SDS011;3126;52.738;8.316;2022-07-23T07:48:42;4.03;;;1.80;;
6185;SDS011;3126;52.738;8.316;2022-07-23T07:53:43;2.10;;;1.90;;
6185;SDS011;3126;52.738;8.316;2022-07-23T07:58:43;2.15;;;1.85;;
6185;SDS011;3126;52.738;8.316;2022-07-23T08:03:44;4.35;;;1.88;;
6185;SDS011;3126;52.738;8.316;2022-07-23T08:08:45;2.10;;;1.52;;
6185;SDS011;3126;52.738;8.316;2022-07-23T08:13:45;3.83;;;1.50;;
6185;SDS011;3126;52.738;8.316;2022-07-23T08:18:46;1.90;;;1.65;;
6185;SDS011;3126;52.738;8.316;2022-07-23T08:23:47;2.67;;;1.33;;
6185;SDS011;3126;52.738;8.316;2022-07-23T08:28:48;2.92;;;1.23;;
6185;SDS011;3126;52.738;8.316;2022-07-23T08:33:50;3.30;;;1.60;;
6185;SDS011;3126;52.738;8.316;2022-07-23T08:38:52;2.65;;;1.05;;
6185;SDS011;3126;52.738;8.316;2022-07-23T08:43:53;2.83;;;1.20;;
6185;SDS011;3126;52.738;8.316;2022-07-23T08:48:54;1.92;;;1.40;;
6185;SDS011;3126;52.738;8.316;2022-07-23T08:53:56;0.90;;;0.80;;
6185;SDS011;3126;52.738;8.316;2022-07-23T09:03:59;0.93;;;0.88;;
6185;SDS011;3126;52.738;8.316;2022-07-23T09:09:00;1.45;;;0.60;;
6185;SDS011;3126;52.738;8.316;2022-07-23T09:14:17;1.00;;;0.60;;
6185;SDS011;3126;52.738;8.316;2022-07-23T09:19:40;1.33;;;1.23;;
6185;SDS011;3126;52.738;8.316;2022-07-23T09:25:01;0.70;;;0.70;;
6185;SDS011;3126;52.738;8.316;2022-07-23T09:30:13;0.75;;;0.70;;
6185;SDS011;3126;52.738;8.316;2022-07-23T09:35:14;2.60;;;0.73;;
6185;SDS011;3126;52.738;8.316;2022-07-23T09:40:15;2.45;;;0.88;;
6185;SDS011;3126;52.738;8.316;2022-07-23T09:45:17;0.80;;;0.80;;
6185;SDS011;3126;52.738;8.316;2022-07-23T09:50:19;2.35;;;0.75;;
6185;SDS011;3126;52.738;8.316;2022-07-23T09:55:21;2.42;;;0.90;;
6185;SDS011;3126;52.738;8.316;2022-07-23T10:00:35;2.47;;;0.70;;
6185;SDS011;3126;52.738;8.316;2022-07-23T10:05:37;2.13;;;0.80;;
6185;SDS011;3126;52.738;8.316;2022-07-23T10:10:39;2.58;;;0.45;;
6185;SDS011;3126;52.738;8.316;2022-07-23T10:15:40;1.45;;;0.93;;
6185;SDS011;3126;52.738;8.316;2022-07-23T10:20:41;0.82;;;0.70;;
6185;SDS011;3126;52.738;8.316;2022-07-23T10:25:49;1.83;;;0.70;;
6185;SDS011;3126;52.738;8.316;2022-07-23T10:36:22;0.90;;;0.82;;
6185;SDS011;3126;52.738;8.316;2022-07-23T10:41:33;0.80;;;0.80;;
6185;SDS011;3126;52.738;8.316;2022-07-23T10:46:54;2.03;;;0.70;;
6185;SDS011;3126;52.738;8.316;2022-07-23T10:57:14;0.57;;;0.50;;
6185;SDS011;3126;52.738;8.316;2022-07-23T11:02:21;0.90;;;0.77;;
6185;SDS011;3126;52.738;8.316;2022-07-23T11:07:23;0.40;;;0.40;;
6185;SDS011;3126;52.738;8.316;2022-07-23T11:17:25;1.02;;;0.63;;
6185;SDS011;3126;52.738;8.316;2022-07-23T11:22:40;0.98;;;0.50;;
6185;SDS011;3126;52.738;8.316;2022-07-23T11:27:46;1.55;;;0.60;;
6185;SDS011;3126;52.738;8.316;2022-07-23T11:32:47;1.30;;;0.50;;
6185;SDS011;3126;52.738;8.316;2022-07-23T11:37:48;2.30;;;0.45;;
6185;SDS011;3126;52.738;8.316;2022-07-23T11:42:52;1.38;;;0.75;;
6185;SDS011;3126;52.738;8.316;2022-07-23T11:48:01;1.35;;;0.65;;
6185;SDS011;3126;52.738;8.316;2022-07-23T11:53:02;0.60;;;0.60;;
6185;SDS011;3126;52.738;8.316;2022-07-23T11:58:03;0.85;;;0.70;;
6185;SDS011;3126;52.738;8.316;2022-07-23T12:03:04;0.70;;;0.70;;
6185;SDS011;3126;52.738;8.316;2022-07-23T12:08:07;0.60;;;0.60;;
6185;SDS011;3126;52.738;8.316;2022-07-23T12:13:15;1.25;;;0.50;;
6185;SDS011;3126;52.738;8.316;2022-07-23T12:18:22;1.30;;;0.60;;
6185;SDS011;3126;52.738;8.316;2022-07-23T12:23:24;0.55;;;0.40;;
6185;SDS011;3126;52.738;8.316;2022-07-23T12:28:30;1.35;;;0.60;;
6185;SDS011;3126;52.738;8.316;2022-07-23T12:33:33;0.60;;;0.60;;
6185;SDS011;3126;52.738;8.316;2022-07-23T12:38:37;0.80;;;0.70;;
6185;SDS011;3126;52.738;8.316;2022-07-23T12:43:41;1.25;;;0.68;;
6185;SDS011;3126;52.738;8.316;2022-07-23T12:48:53;1.45;;;0.50;;
6185;SDS011;3126;52.738;8.316;2022-07-23T12:54:12;0.98;;;0.50;;
6185;SDS011;3126;52.738;8.316;2022-07-23T12:59:13;0.93;;;0.55;;
6185;SDS011;3126;52.738;8.316;2022-07-23T13:04:20;0.65;;;0.50;;
6185;SDS011;3126;52.738;8.316;2022-07-23T13:09:22;1.17;;;0.57;;
6185;SDS011;3126;52.738;8.316;2022-07-23T13:19:31;1.40;;;0.60;;
6185;SDS011;3126;52.738;8.316;2022-07-23T13:24:31;1.45;;;0.60;;
6185;SDS011;3126;52.738;8.316;2022-07-23T13:29:32;1.17;;;0.50;;
6185;SDS011;3126;52.738;8.316;2022-07-23T13:34:32;0.57;;;0.57;;
6185;SDS011;3126;52.738;8.316;2022-07-23T13:39:33;0.60;;;0.60;;
6185;SDS011;3126;52.738;8.316;2022-07-23T13:44:34;0.40;;;0.40;;
6185;SDS011;3126;52.738;8.316;2022-07-23T13:49:35;1.15;;;0.55;;
6185;SDS011;3126;52.738;8.316;2022-07-23T13:54:35;2.13;;;0.60;;
6185;SDS011;3126;52.738;8.316;2022-07-23T13:59:36;2.03;;;0.60;;
6185;SDS011;3126;52.738;8.316;2022-07-23T14:04:37;0.57;;;0.57;;
6185;SDS011;3126;52.738;8.316;2022-07-23T14:09:37;4.18;;;0.95;;
6185;SDS011;3126;52.738;8.316;2022-07-23T14:14:38;2.03;;;0.70;;
6185;SDS011;3126;52.738;8.316;2022-07-23T14:19:38;1.10;;;0.50;;
6185;SDS011;3126;52.738;8.316;2022-07-23T14:24:39;2.38;;;0.70;;
6185;SDS011;3126;52.738;8.316;2022-07-23T14:29:40;0.57;;;0.57;;
6185;SDS011;3126;52.738;8.316;2022-07-23T14:34:41;1.70;;;1.05;;
6185;SDS011;3126;52.738;8.316;2022-07-23T14:39:42;0.90;;;0.90;;
6185;SDS011;3126;52.738;8.316;2022-07-23T14:44:43;0.80;;;0.80;;
6185;SDS011;3126;52.738;8.316;2022-07-23T14:49:44;0.98;;;0.70;;
6185;SDS011;3126;52.738;8.316;2022-07-23T14:54:45;0.88;;;0.82;;
6185;SDS011;3126;52.738;8.316;2022-07-23T14:59:47;1.38;;;0.82;;
6185;SDS011;3126;52.738;8.316;2022-07-23T15:04:48;0.95;;;0.88;;
6185;SDS011;3126;52.738;8.316;2022-07-23T15:09:48;1.13;;;0.80;;
6185;SDS011;3126;52.738;8.316;2022-07-23T15:14:50;0.68;;;0.68;;
6185;SDS011;3126;52.738;8.316;2022-07-23T15:19:50;2.72;;;0.85;;
6185;SDS011;3126;52.738;8.316;2022-07-23T15:24:51;2.20;;;0.90;;
6185;SDS011;3126;52.738;8.316;2022-07-23T15:29:52;1.50;;;0.95;;
6185;SDS011;3126;52.738;8.316;2022-07-23T15:34:53;1.92;;;1.05;;
6185;SDS011;3126;52.738;8.316;2022-07-23T15:39:54;1.48;;;0.80;;
6185;SDS011;3126;52.738;8.316;2022-07-23T15:44:54;1.00;;;0.90;;
6185;SDS011;3126;52.738;8.316;2022-07-23T15:49:55;1.95;;;1.23;;
6185;SDS011;3126;52.738;8.316;2022-07-23T15:54:55;2.05;;;1.00;;
6185;SDS011;3126;52.738;8.316;2022-07-23T15:59:56;2.13;;;1.33;;
6185;SDS011;3126;52.738;8.316;2022-07-23T16:04:56;1.33;;;0.98;;
6185;SDS011;3126;52.738;8.316;2022-07-23T16:09:57;2.45;;;0.90;;
6185;SDS011;3126;52.738;8.316;2022-07-23T16:14:58;1.10;;;1.10;;
6185;SDS011;3126;52.738;8.316;2022-07-23T16:19:58;2.63;;;1.10;;
6185;SDS011;3126;52.738;8.316;2022-07-23T16:24:59;2.45;;;1.13;;
6185;SDS011;3126;52.738;8.316;2022-07-23T16:29:59;1.60;;;1.02;;
6185;SDS011;3126;52.738;8.316;2022-07-23T16:35:00;1.95;;;1.45;;
6185;SDS011;3126;52.738;8.316;2022-07-23T16:40:03;1.38;;;0.93;;
6185;SDS011;3126;52.738;8.316;2022-07-23T16:45:05;1.45;;;1.00;;
6185;SDS011;3126;52.738;8.316;2022-07-23T16:50:06;3.65;;;1.52;;
6185;SDS011;3126;52.738;8.316;2022-07-23T16:55:07;2.17;;;1.65;;
6185;SDS011;3126;52.738;8.316;2022-07-23T17:00:08;3.72;;;1.60;;
6185;SDS011;3126;52.738;8.316;2022-07-23T17:05:10;2.25;;;1.40;;
6185;SDS011;3126;52.738;8.316;2022-07-23T17:10:12;1.45;;;1.35;;
6185;SDS011;3126;52.738;8.316;2022-07-23T17:15:13;2.83;;;1.70;;
6185;SDS011;3126;52.738;8.316;2022-07-23T17:20:15;1.95;;;1.67;;
6185;SDS011;3126;52.738;8.316;2022-07-23T17:25:16;1.85;;;1.75;;
6185;SDS011;3126;52.738;8.316;2022-07-23T17:30:19;2.30;;;2.10;;
6185;SDS011;3126;52.738;8.316;2022-07-23T17:35:19;1.52;;;1.42;;
6185;SDS011;3126;52.738;8.316;2022-07-23T17:40:20;1.35;;;1.25;;
6185;SDS011;3126;52.738;8.316;2022-07-23T17:45:20;2.55;;;1.70;;
6185;SDS011;3126;52.738;8.316;2022-07-23T17:50:21;1.90;;;1.80;;
6185;SDS011;3126;52.738;8.316;2022-07-23T17:55:22;4.00;;;2.00;;
6185;SDS011;3126;52.738;8.316;2022-07-23T18:00:24;2.30;;;1.90;;
6185;SDS011;3126;52.738;8.316;2022-07-23T18:05:26;2.03;;;1.80;;
6185;SDS011;3126;52.738;8.316;2022-07-23T18:10:28;1.92;;;1.80;;
6185;SDS011;3126;52.738;8.316;2022-07-23T18:15:30;2.33;;;1.73;;
6185;SDS011;3126;52.738;8.316;2022-07-23T18:20:31;3.22;;;2.00;;
6185;SDS011;3126;52.738;8.316;2022-07-23T18:25:32;2.15;;;1.95;;
6185;SDS011;3126;52.738;8.316;2022-07-23T18:30:33;1.85;;;1.70;;
6185;SDS011;3126;52.738;8.316;2022-07-23T18:35:34;3.25;;;2.17;;
6185;SDS011;3126;52.738;8.316;2022-07-23T18:40:35;2.03;;;1.48;;
6185;SDS011;3126;52.738;8.316;2022-07-23T18:45:39;2.20;;;1.88;;
6185;SDS011;3126;52.738;8.316;2022-07-23T18:50:41;2.40;;;1.83;;
6185;SDS011;3126;52.738;8.316;2022-07-23T18:55:42;2.75;;;2.20;;
6185;SDS011;3126;52.738;8.316;2022-07-23T19:00:42;2.03;;;1.90;;
6185;SDS011;3126;52.738;8.316;2022-07-23T19:05:43;3.28;;;1.73;;
6185;SDS011;3126;52.738;8.316;2022-07-23T19:10:44;1.80;;;1.70;;
6185;SDS011;3126;52.738;8.316;2022-07-23T19:15:44;2.42;;;1.85;;
6185;SDS011;3126;52.738;8.316;2022-07-23T19:20:46;2.85;;;2.03;;
6185;SDS011;3126;52.738;8.316;2022-07-23T19:25:47;2.92;;;1.60;;
6185;SDS011;3126;52.738;8.316;2022-07-23T19:30:47;3.50;;;1.83;;
6185;SDS011;3126;52.738;8.316;2022-07-23T19:35:48;3.08;;;1.92;;
6185;SDS011;3126;52.738;8.316;2022-07-23T19:40:49;2.20;;;2.10;;
6185;SDS011;3126;52.738;8.316;2022-07-23T19:45:50;2.42;;;2.10;;
6185;SDS011;3126;52.738;8.316;2022-07-23T19:50:51;2.42;;;2.22;;
6185;SDS011;3126;52.738;8.316;2022-07-23T19:55:52;3.38;;;2.40;;
6185;SDS011;3126;52.738;8.316;2022-07-23T20:00:52;3.53;;;2.10;;
6185;SDS011;3126;52.738;8.316;2022-07-23T20:05:53;4.05;;;2.45;;
6185;SDS011;3126;52.738;8.316;2022-07-23T20:10:54;3.55;;;2.70;;
6185;SDS011;3126;52.738;8.316;2022-07-23T20:15:55;4.78;;;2.47;;
6185;SDS011;3126;52.738;8.316;2022-07-23T20:20:56;4.35;;;3.08;;
6185;SDS011;3126;52.738;8.316;2022-07-23T20:25:56;3.67;;;2.80;;
6185;SDS011;3126;52.738;8.316;2022-07-23T20:30:57;6.10;;;2.78;;
6185;SDS011;3126;52.738;8.316;2022-07-23T20:35:59;6.40;;;3.50;;
6185;SDS011;3126;52.738;8.316;2022-07-23T20:41:00;5.97;;;3.83;;
6185;SDS011;3126;52.738;8.316;2022-07-23T20:46:01;6.63;;;3.50;;
6185;SDS011;3126;52.738;8.316;2022-07-23T20:51:02;3.42;;;3.15;;
6185;SDS011;3126;52.738;8.316;2022-07-23T20:56:03;4.65;;;3.10;;
6185;SDS011;3126;52.738;8.316;2022-07-23T21:01:04;7.03;;;4.00;;
6185;SDS011;3126;52.738;8.316;2022-07-23T21:06:05;4.50;;;3.42;;
6185;SDS011;3126;52.738;8.316;2022-07-23T21:11:06;4.80;;;3.05;;
6185;SDS011;3126;52.738;8.316;2022-07-23T21:16:06;3.88;;;3.53;;
6185;SDS011;3126;52.738;8.316;2022-07-23T21:21:07;5.72;;;3.47;;
6185;SDS011;3126;52.738;8.316;2022-07-23T21:26:08;3.75;;;3.35;;
6185;SDS011;3126;52.738;8.316;2022-07-23T21:31:09;4.85;;;2.95;;
6185;SDS011;3126;52.738;8.316;2022-07-23T21:36:10;3.70;;;3.50;;
6185;SDS011;3126;52.738;8.316;2022-07-23T21:41:11;4.10;;;3.80;;
6185;SDS011;3126;52.738;8.316;2022-07-23T21:46:12;3.72;;;3.40;;
6185;SDS011;3126;52.738;8.316;2022-07-23T21:51:13;3.63;;;3.03;;
6185;SDS011;3126;52.738;8.316;2022-07-23T21:56:13;3.90;;;3.53;;
6185;SDS011;3126;52.738;8.316;2022-07-23T22:01:14;6.55;;;3.80;;
6185;SDS011;3126;52.738;8.316;2022-07-23T22:06:15;4.20;;;3.72;;
6185;SDS011;3126;52.738;8.316;2022-07-23T22:11:15;4.28;;;3.58;;
6185;SDS011;3126;52.738;8.316;2022-07-23T22:16:16;6.75;;;4.47;;
6185;SDS011;3126;52.738;8.316;2022-07-23T22:21:16;4.35;;;3.95;;
6185;SDS011;3126;52.738;8.316;2022-07-23T22:26:17;5.05;;;3.92;;
6185;SDS011;3126;52.738;8.316;2022-07-23T22:31:17;5.47;;;4.15;;
6185;SDS011;3126;52.738;8.316;2022-07-23T22:36:18;3.72;;;3.42;;
6185;SDS011;3126;52.738;8.316;2022-07-23T22:41:18;5.55;;;3.95;;
6185;SDS011;3126;52.738;8.316;2022-07-23T22:46:19;5.30;;;4.32;;
6185;SDS011;3126;52.738;8.316;2022-07-23T22:51:20;4.45;;;4.05;;
6185;SDS011;3126;52.738;8.316;2022-07-23T22:56:21;5.07;;;4.57;;
6185;SDS011;3126;52.738;8.316;2022-07-23T23:01:21;5.78;;;4.10;;
6185;SDS011;3126;52.738;8.316;2022-07-23T23:06:22;5.07;;;4.60;;
6185;SDS011;3126;52.738;8.316;2022-07-23T23:11:22;4.93;;;4.28;;
6185;SDS011;3126;52.738;8.316;2022-07-23T23:16:23;5.10;;;4.35;;
6185;SDS011;3126;52.738;8.316;2022-07-23T23:21:24;4.90;;;4.20;;
6185;SDS011;3126;52.738;8.316;2022-07-23T23:26:24;4.72;;;4.20;;
6185;SDS011;3126;52.738;8.316;2022-07-23T23:31:25;5.30;;;4.65;;
6185;SDS011;3126;52.738;8.316;2022-07-23T23:36:25;5.90;;;4.38;;
6185;SDS011;3126;52.738;8.316;2022-07-23T23:41:26;6.50;;;4.97;;
6185;SDS011;3126;52.738;8.316;2022-07-23T23:46:27;5.25;;;4.75;;
6185;SDS011;3126;52.738;8.316;2022-07-23T23:51:28;5.28;;;4.78;;
6185;SDS011;3126;52.738;8.316;2022-07-23T23:56:29;8.07;;;4.72;;
